Main page
METAR-TAF:

METAR-TAF

Airports :

Netaji Subhas Chandra Bose International Airport

Kolkata, India

latitude: 22-39N, longitude: 088-27E, elevation: 4 m

Current weather observation

The report was made 33 minutes ago, at 19:30 UTC
Wind 4 kt from the North
Temperature 21°C
Humidity 73%
Pressure 1012 hPa
Visibility: 3200 m
haze

METAR: VECC 011930Z 35004KT 3200 HZ NSC 21/16 Q1012 NOSIG

Time: 01:33 (20:03 UTC)

Forecast

The report was made 3 hours and 3 minutes ago, at 17:00 UTC
Forecast valid from 01 at 18 UTC to 02 at 24 UTC
Wind 5 kt from the North
Visibility: 3200 m
haze
Becoming
from 02 at 00 UTC to 02 at 02 UTC
Visibility: 1800 m
mist
Becoming
from 02 at 05 UTC to 02 at 07 UTC
Visibility: 3500 m
haze
Becoming
from 02 at 20 UTC to 02 at 22 UTC
Visibility: 2600 m
haze

TAF: VECC 011700Z 0118/0224 35005KT 3200 HZ NSC BECMG 0200/0202 1800 BR BECMG 0205/0207 3500 HZ BECMG 0220/0222 2600 HZ

Weather observations and forecasts of more than 4000 airports (METAR and TAF reports).

The available stations are represented by yellow and red dots on the map.

Hover mouse over dot to see the name of the station.

Then click to see weather observations and forecasts.

To change the map : click on the green buttons with a black cross to zoom in, on the green button with a dash to zoom out, or on the green arrows for adjacent maps.


METAR-TAF: